sensor_id;sensor_type;location;lat;lon;timestamp;temperature;humidity
20654;DHT22;21083;50.898;4.902;2023-04-06T00:00:34;8.20;99.90
20654;DHT22;21083;50.898;4.902;2023-04-06T00:03:03;8.10;99.90
20654;DHT22;21083;50.898;4.902;2023-04-06T00:05:29;8.10;99.90
20654;DHT22;21083;50.898;4.902;2023-04-06T00:07:57;8.00;99.90
20654;DHT22;21083;50.898;4.902;2023-04-06T00:10:24;8.00;99.90
20654;DHT22;21083;50.898;4.902;2023-04-06T00:12:52;7.90;99.90
20654;DHT22;21083;50.898;4.902;2023-04-06T00:15:19;7.80;99.90
20654;DHT22;21083;50.898;4.902;2023-04-06T00:17:46;7.80;99.90
20654;DHT22;21083;50.898;4.902;2023-04-06T00:20:15;7.80;99.90
20654;DHT22;21083;50.898;4.902;2023-04-06T00:22:42;7.70;99.90
20654;DHT22;21083;50.898;4.902;2023-04-06T00:25:09;7.60;99.90
20654;DHT22;21083;50.898;4.902;2023-04-06T00:27:37;7.50;99.90
20654;DHT22;21083;50.898;4.902;2023-04-06T00:30:04;7.50;99.90
20654;DHT22;21083;50.898;4.902;2023-04-06T00:32:32;7.40;99.90
20654;DHT22;21083;50.898;4.902;2023-04-06T00:34:58;7.30;99.90
20654;DHT22;21083;50.898;4.902;2023-04-06T00:37:27;7.30;99.90
20654;DHT22;21083;50.898;4.902;2023-04-06T00:39:54;7.30;99.90
20654;DHT22;21083;50.898;4.902;2023-04-06T00:42:21;7.20;99.90
20654;DHT22;21083;50.898;4.902;2023-04-06T00:44:51;7.20;99.90
20654;DHT22;21083;50.898;4.902;2023-04-06T00:47:18;7.10;99.90
20654;DHT22;21083;50.898;4.902;2023-04-06T00:49:45;7.10;99.90
20654;DHT22;21083;50.898;4.902;2023-04-06T00:52:12;7.00;99.90
20654;DHT22;21083;50.898;4.902;2023-04-06T00:54:41;7.10;99.90
20654;DHT22;21083;50.898;4.902;2023-04-06T00:57:08;7.10;99.90
20654;DHT22;21083;50.898;4.902;2023-04-06T00:59:35;7.00;99.90
20654;DHT22;21083;50.898;4.902;2023-04-06T01:02:02;7.00;99.90
20654;DHT22;21083;50.898;4.902;2023-04-06T01:04:30;7.00;99.90
20654;DHT22;21083;50.898;4.902;2023-04-06T01:06:57;7.00;99.90
20654;DHT22;21083;50.898;4.902;2023-04-06T01:09:24;7.00;99.90
20654;DHT22;21083;50.898;4.902;2023-04-06T01:11:53;7.00;99.90
20654;DHT22;21083;50.898;4.902;2023-04-06T01:14:21;7.00;99.90
20654;DHT22;21083;50.898;4.902;2023-04-06T01:16:48;7.00;99.90
20654;DHT22;21083;50.898;4.902;2023-04-06T01:19:15;6.90;99.90
20654;DHT22;21083;50.898;4.902;2023-04-06T01:21:42;6.90;99.90
20654;DHT22;21083;50.898;4.902;2023-04-06T01:24:10;6.90;99.90
20654;DHT22;21083;50.898;4.902;2023-04-06T01:26:38;6.90;99.90
20654;DHT22;21083;50.898;4.902;2023-04-06T01:29:05;6.80;99.90
20654;DHT22;21083;50.898;4.902;2023-04-06T01:31:32;6.80;99.90
20654;DHT22;21083;50.898;4.902;2023-04-06T01:33:59;6.80;99.90
20654;DHT22;21083;50.898;4.902;2023-04-06T01:36:26;6.80;99.90
20654;DHT22;21083;50.898;4.902;2023-04-06T01:38:53;6.80;99.90
20654;DHT22;21083;50.898;4.902;2023-04-06T01:41:21;6.80;99.90
20654;DHT22;21083;50.898;4.902;2023-04-06T01:43:48;6.70;99.90
20654;DHT22;21083;50.898;4.902;2023-04-06T01:46:19;6.70;99.90
20654;DHT22;21083;50.898;4.902;2023-04-06T01:48:46;6.70;99.90
20654;DHT22;21083;50.898;4.902;2023-04-06T01:51:13;6.60;99.90
20654;DHT22;21083;50.898;4.902;2023-04-06T01:53:40;6.60;99.90
20654;DHT22;21083;50.898;4.902;2023-04-06T01:56:07;6.60;99.90
20654;DHT22;21083;50.898;4.902;2023-04-06T01:58:36;6.60;99.90
20654;DHT22;21083;50.898;4.902;2023-04-06T02:01:03;6.70;99.90
20654;DHT22;21083;50.898;4.902;2023-04-06T02:03:30;6.60;99.90
20654;DHT22;21083;50.898;4.902;2023-04-06T02:05:57;6.70;99.90
20654;DHT22;21083;50.898;4.902;2023-04-06T02:08:24;6.70;99.90
20654;DHT22;21083;50.898;4.902;2023-04-06T02:10:51;6.70;99.90
20654;DHT22;21083;50.898;4.902;2023-04-06T02:13:18;6.60;99.90
20654;DHT22;21083;50.898;4.902;2023-04-06T02:15:47;6.60;99.90
20654;DHT22;21083;50.898;4.902;2023-04-06T02:18:14;6.60;99.90
20654;DHT22;21083;50.898;4.902;2023-04-06T02:20:43;6.60;99.90
20654;DHT22;21083;50.898;4.902;2023-04-06T02:23:10;6.60;99.90
20654;DHT22;21083;50.898;4.902;2023-04-06T02:25:37;6.50;99.90
20654;DHT22;21083;50.898;4.902;2023-04-06T02:28:04;6.60;99.90
20654;DHT22;21083;50.898;4.902;2023-04-06T02:30:31;6.70;99.90
20654;DHT22;21083;50.898;4.902;2023-04-06T02:32:59;6.80;99.90
20654;DHT22;21083;50.898;4.902;2023-04-06T02:35:27;6.80;99.90
20654;DHT22;21083;50.898;4.902;2023-04-06T02:37:55;6.80;99.90
20654;DHT22;21083;50.898;4.902;2023-04-06T02:40:22;6.90;99.90
20654;DHT22;21083;50.898;4.902;2023-04-06T02:42:48;7.00;99.90
20654;DHT22;21083;50.898;4.902;2023-04-06T02:45:16;7.00;99.90
20654;DHT22;21083;50.898;4.902;2023-04-06T02:47:43;7.00;99.90
20654;DHT22;21083;50.898;4.902;2023-04-06T02:50:11;7.10;99.90
20654;DHT22;21083;50.898;4.902;2023-04-06T02:52:38;7.10;99.90
20654;DHT22;21083;50.898;4.902;2023-04-06T02:55:06;7.10;99.90
20654;DHT22;21083;50.898;4.902;2023-04-06T02:57:33;7.10;99.90
20654;DHT22;21083;50.898;4.902;2023-04-06T03:00:00;7.10;99.90
20654;DHT22;21083;50.898;4.902;2023-04-06T03:02:27;7.00;99.90
20654;DHT22;21083;50.898;4.902;2023-04-06T03:04:55;6.90;99.90
20654;DHT22;21083;50.898;4.902;2023-04-06T03:07:23;6.90;99.90
20654;DHT22;21083;50.898;4.902;2023-04-06T03:09:50;6.90;99.90
20654;DHT22;21083;50.898;4.902;2023-04-06T03:12:17;6.70;99.90
20654;DHT22;21083;50.898;4.902;2023-04-06T03:14:44;6.80;99.90
20654;DHT22;21083;50.898;4.902;2023-04-06T03:17:11;6.80;99.90
20654;DHT22;21083;50.898;4.902;2023-04-06T03:19:38;6.80;99.90
20654;DHT22;21083;50.898;4.902;2023-04-06T03:22:05;6.80;99.90
20654;DHT22;21083;50.898;4.902;2023-04-06T03:24:33;6.80;99.90
20654;DHT22;21083;50.898;4.902;2023-04-06T03:27:00;6.80;99.90
20654;DHT22;21083;50.898;4.902;2023-04-06T03:29:27;6.90;99.90
20654;DHT22;21083;50.898;4.902;2023-04-06T03:31:54;6.90;99.90
20654;DHT22;21083;50.898;4.902;2023-04-06T03:34:21;7.00;99.90
20654;DHT22;21083;50.898;4.902;2023-04-06T03:36:48;7.10;99.90
20654;DHT22;21083;50.898;4.902;2023-04-06T03:39:15;6.90;99.90
20654;DHT22;21083;50.898;4.902;2023-04-06T03:41:43;7.00;99.90
20654;DHT22;21083;50.898;4.902;2023-04-06T03:44:11;7.00;99.90
20654;DHT22;21083;50.898;4.902;2023-04-06T03:46:37;7.00;99.90
20654;DHT22;21083;50.898;4.902;2023-04-06T03:49:05;7.00;99.90
20654;DHT22;21083;50.898;4.902;2023-04-06T03:51:32;6.90;99.90
20654;DHT22;21083;50.898;4.902;2023-04-06T03:53:58;6.90;99.90
20654;DHT22;21083;50.898;4.902;2023-04-06T03:56:26;6.90;99.90
20654;DHT22;21083;50.898;4.902;2023-04-06T03:58:54;6.90;99.90
20654;DHT22;21083;50.898;4.902;2023-04-06T04:01:21;6.90;99.90
20654;DHT22;21083;50.898;4.902;2023-04-06T04:03:48;6.90;99.90
20654;DHT22;21083;50.898;4.902;2023-04-06T04:06:15;6.90;99.90
20654;DHT22;21083;50.898;4.902;2023-04-06T04:08:42;6.90;99.90
20654;DHT22;21083;50.898;4.902;2023-04-06T04:11:09;6.90;99.90
20654;DHT22;21083;50.898;4.902;2023-04-06T04:13:36;6.90;99.90
20654;DHT22;21083;50.898;4.902;2023-04-06T04:16:05;7.00;99.90
20654;DHT22;21083;50.898;4.902;2023-04-06T04:18:32;7.00;99.90
20654;DHT22;21083;50.898;4.902;2023-04-06T04:20:59;7.00;99.90
20654;DHT22;21083;50.898;4.902;2023-04-06T04:23:26;7.00;99.90
20654;DHT22;21083;50.898;4.902;2023-04-06T04:25:53;7.10;99.90
20654;DHT22;21083;50.898;4.902;2023-04-06T04:28:20;7.10;99.90
20654;DHT22;21083;50.898;4.902;2023-04-06T04:30:47;7.10;99.90
20654;DHT22;21083;50.898;4.902;2023-04-06T04:33:15;7.10;99.90
20654;DHT22;21083;50.898;4.902;2023-04-06T04:35:42;7.10;99.90
20654;DHT22;21083;50.898;4.902;2023-04-06T04:38:09;7.20;99.90
20654;DHT22;21083;50.898;4.902;2023-04-06T04:40:37;7.20;99.90
20654;DHT22;21083;50.898;4.902;2023-04-06T04:43:04;7.10;99.90
20654;DHT22;21083;50.898;4.902;2023-04-06T04:45:31;7.10;99.90
20654;DHT22;21083;50.898;4.902;2023-04-06T04:47:58;6.90;99.90
20654;DHT22;21083;50.898;4.902;2023-04-06T04:50:26;7.00;99.90
20654;DHT22;21083;50.898;4.902;2023-04-06T04:52:53;6.90;99.90
20654;DHT22;21083;50.898;4.902;2023-04-06T04:55:20;7.10;99.90
20654;DHT22;21083;50.898;4.902;2023-04-06T04:57:47;7.10;99.90
20654;DHT22;21083;50.898;4.902;2023-04-06T05:00:14;7.10;99.90
20654;DHT22;21083;50.898;4.902;2023-04-06T05:02:42;7.00;99.90
20654;DHT22;21083;50.898;4.902;2023-04-06T05:05:08;7.00;99.90
20654;DHT22;21083;50.898;4.902;2023-04-06T05:07:37;7.00;99.90
20654;DHT22;21083;50.898;4.902;2023-04-06T05:10:04;7.00;99.90
20654;DHT22;21083;50.898;4.902;2023-04-06T05:12:32;7.00;99.90
20654;DHT22;21083;50.898;4.902;2023-04-06T05:14:59;7.10;99.90
20654;DHT22;21083;50.898;4.902;2023-04-06T05:17:26;7.10;99.90
20654;DHT22;21083;50.898;4.902;2023-04-06T05:19:53;7.10;99.90
20654;DHT22;21083;50.898;4.902;2023-04-06T05:22:19;7.20;99.90
20654;DHT22;21083;50.898;4.902;2023-04-06T05:24:48;7.10;99.90
20654;DHT22;21083;50.898;4.902;2023-04-06T05:27:15;7.10;99.90
20654;DHT22;21083;50.898;4.902;2023-04-06T05:29:43;7.10;99.90
20654;DHT22;21083;50.898;4.902;2023-04-06T05:32:10;7.20;99.90
20654;DHT22;21083;50.898;4.902;2023-04-06T05:34:37;7.20;99.90
20654;DHT22;21083;50.898;4.902;2023-04-06T05:37:04;7.30;99.90
20654;DHT22;21083;50.898;4.902;2023-04-06T05:39:31;7.30;99.90
20654;DHT22;21083;50.898;4.902;2023-04-06T05:42:03;7.30;99.90
20654;DHT22;21083;50.898;4.902;2023-04-06T05:44:30;7.30;99.90
20654;DHT22;21083;50.898;4.902;2023-04-06T05:46:57;7.60;99.90
20654;DHT22;21083;50.898;4.902;2023-04-06T05:49:24;7.70;99.90
20654;DHT22;21083;50.898;4.902;2023-04-06T05:51:51;7.70;99.90
20654;DHT22;21083;50.898;4.902;2023-04-06T05:54:18;7.60;99.90
20654;DHT22;21083;50.898;4.902;2023-04-06T05:56:45;8.10;99.90
20654;DHT22;21083;50.898;4.902;2023-04-06T05:59:14;8.30;99.90
20654;DHT22;21083;50.898;4.902;2023-04-06T06:01:41;8.20;99.90
20654;DHT22;21083;50.898;4.902;2023-04-06T06:04:08;8.20;99.90
20654;DHT22;21083;50.898;4.902;2023-04-06T06:06:35;8.10;99.90
20654;DHT22;21083;50.898;4.902;2023-04-06T06:09:02;8.00;99.90
20654;DHT22;21083;50.898;4.902;2023-04-06T06:11:29;7.90;99.90
20654;DHT22;21083;50.898;4.902;2023-04-06T06:13:56;7.80;99.90
20654;DHT22;21083;50.898;4.902;2023-04-06T06:16:25;7.80;99.90
20654;DHT22;21083;50.898;4.902;2023-04-06T06:18:52;7.80;99.90
20654;DHT22;21083;50.898;4.902;2023-04-06T06:21:19;7.80;99.90
20654;DHT22;21083;50.898;4.902;2023-04-06T06:23:46;7.80;99.90
20654;DHT22;21083;50.898;4.902;2023-04-06T06:26:14;7.80;99.90
20654;DHT22;21083;50.898;4.902;2023-04-06T06:28:42;7.90;99.90
20654;DHT22;21083;50.898;4.902;2023-04-06T06:31:09;8.00;99.90
20654;DHT22;21083;50.898;4.902;2023-04-06T06:33:37;8.00;99.90
20654;DHT22;21083;50.898;4.902;2023-04-06T06:36:04;8.10;99.90
20654;DHT22;21083;50.898;4.902;2023-04-06T06:38:31;8.20;99.90
20654;DHT22;21083;50.898;4.902;2023-04-06T06:40:58;8.30;99.90
20654;DHT22;21083;50.898;4.902;2023-04-06T06:43:25;8.30;99.90
20654;DHT22;21083;50.898;4.902;2023-04-06T06:45:52;8.50;99.90
20654;DHT22;21083;50.898;4.902;2023-04-06T06:48:19;8.50;99.90
20654;DHT22;21083;50.898;4.902;2023-04-06T06:50:48;8.50;99.90
20654;DHT22;21083;50.898;4.902;2023-04-06T06:53:15;8.70;99.90
20654;DHT22;21083;50.898;4.902;2023-04-06T06:55:42;8.70;99.90
20654;DHT22;21083;50.898;4.902;2023-04-06T06:58:10;8.70;99.90
20654;DHT22;21083;50.898;4.902;2023-04-06T07:00:37;8.70;99.90
20654;DHT22;21083;50.898;4.902;2023-04-06T07:03:04;8.70;99.90
20654;DHT22;21083;50.898;4.902;2023-04-06T07:05:31;8.60;99.90
20654;DHT22;21083;50.898;4.902;2023-04-06T07:08:00;8.60;99.90
20654;DHT22;21083;50.898;4.902;2023-04-06T07:10:27;8.60;99.90
20654;DHT22;21083;50.898;4.902;2023-04-06T07:12:54;8.50;99.90
20654;DHT22;21083;50.898;4.902;2023-04-06T07:15:21;8.70;99.90
20654;DHT22;21083;50.898;4.902;2023-04-06T07:17:48;8.60;99.90
20654;DHT22;21083;50.898;4.902;2023-04-06T07:20:15;8.60;99.90
20654;DHT22;21083;50.898;4.902;2023-04-06T07:22:43;8.70;99.90
20654;DHT22;21083;50.898;4.902;2023-04-06T07:25:12;8.70;99.90
20654;DHT22;21083;50.898;4.902;2023-04-06T07:27:39;8.60;99.90
20654;DHT22;21083;50.898;4.902;2023-04-06T07:30:07;8.70;99.90
20654;DHT22;21083;50.898;4.902;2023-04-06T07:32:34;8.50;99.90
20654;DHT22;21083;50.898;4.902;2023-04-06T07:35:01;8.60;99.90
20654;DHT22;21083;50.898;4.902;2023-04-06T07:37:28;8.60;99.90
20654;DHT22;21083;50.898;4.902;2023-04-06T07:39:55;8.70;99.90
20654;DHT22;21083;50.898;4.902;2023-04-06T07:42:23;8.80;99.90
20654;DHT22;21083;50.898;4.902;2023-04-06T07:44:50;8.70;99.90
20654;DHT22;21083;50.898;4.902;2023-04-06T07:47:17;8.80;99.90
20654;DHT22;21083;50.898;4.902;2023-04-06T07:49:44;8.80;99.90
20654;DHT22;21083;50.898;4.902;2023-04-06T07:52:12;8.80;99.90
20654;DHT22;21083;50.898;4.902;2023-04-06T07:54:40;8.80;99.90
20654;DHT22;21083;50.898;4.902;2023-04-06T07:57:07;8.90;99.90
20654;DHT22;21083;50.898;4.902;2023-04-06T07:59:35;8.90;99.90
20654;DHT22;21083;50.898;4.902;2023-04-06T08:02:02;8.70;99.90
20654;DHT22;21083;50.898;4.902;2023-04-06T08:04:29;8.60;99.90
20654;DHT22;21083;50.898;4.902;2023-04-06T08:06:56;8.50;99.90
20654;DHT22;21083;50.898;4.902;2023-04-06T08:09:23;8.50;99.90
20654;DHT22;21083;50.898;4.902;2023-04-06T08:11:50;8.60;99.90
20654;DHT22;21083;50.898;4.902;2023-04-06T08:14:17;8.70;99.90
20654;DHT22;21083;50.898;4.902;2023-04-06T08:16:45;8.60;99.90
20654;DHT22;21083;50.898;4.902;2023-04-06T08:19:13;8.50;99.90
20654;DHT22;21083;50.898;4.902;2023-04-06T08:21:42;8.60;99.90
20654;DHT22;21083;50.898;4.902;2023-04-06T08:24:09;8.50;99.90
20654;DHT22;21083;50.898;4.902;2023-04-06T08:26:36;8.60;99.90
20654;DHT22;21083;50.898;4.902;2023-04-06T08:29:03;8.80;99.90
20654;DHT22;21083;50.898;4.902;2023-04-06T08:31:33;8.80;99.90
20654;DHT22;21083;50.898;4.902;2023-04-06T08:34:01;8.90;99.90
20654;DHT22;21083;50.898;4.902;2023-04-06T08:36:28;8.90;99.90
20654;DHT22;21083;50.898;4.902;2023-04-06T08:38:55;8.90;99.90
20654;DHT22;21083;50.898;4.902;2023-04-06T08:41:22;9.10;99.90
20654;DHT22;21083;50.898;4.902;2023-04-06T08:43:52;9.10;99.90
20654;DHT22;21083;50.898;4.902;2023-04-06T08:46:21;9.10;99.90
20654;DHT22;21083;50.898;4.902;2023-04-06T08:48:48;9.10;99.90
20654;DHT22;21083;50.898;4.902;2023-04-06T08:51:17;9.20;99.90
20654;DHT22;21083;50.898;4.902;2023-04-06T08:53:45;9.40;99.90
20654;DHT22;21083;50.898;4.902;2023-04-06T08:56:14;9.40;99.90
20654;DHT22;21083;50.898;4.902;2023-04-06T08:58:41;9.50;99.90
20654;DHT22;21083;50.898;4.902;2023-04-06T09:01:11;9.40;99.90
20654;DHT22;21083;50.898;4.902;2023-04-06T09:03:41;9.50;99.90
20654;DHT22;21083;50.898;4.902;2023-04-06T09:06:09;9.50;99.90
20654;DHT22;21083;50.898;4.902;2023-04-06T09:08:39;9.50;99.90
20654;DHT22;21083;50.898;4.902;2023-04-06T09:11:06;9.40;99.90
20654;DHT22;21083;50.898;4.902;2023-04-06T09:13:44;9.40;99.90
20654;DHT22;21083;50.898;4.902;2023-04-06T09:16:11;9.50;99.90
20654;DHT22;21083;50.898;4.902;2023-04-06T09:18:38;9.50;99.90
20654;DHT22;21083;50.898;4.902;2023-04-06T09:21:07;9.50;99.90
20654;DHT22;21083;50.898;4.902;2023-04-06T09:23:38;9.50;99.90
20654;DHT22;21083;50.898;4.902;2023-04-06T09:26:10;9.60;99.90
20654;DHT22;21083;50.898;4.902;2023-04-06T09:28:44;9.70;99.90
20654;DHT22;21083;50.898;4.902;2023-04-06T09:31:13;9.80;99.90
20654;DHT22;21083;50.898;4.902;2023-04-06T09:33:41;9.90;99.90
20654;DHT22;21083;50.898;4.902;2023-04-06T09:36:08;10.00;99.90
20654;DHT22;21083;50.898;4.902;2023-04-06T09:38:38;10.00;99.90
20654;DHT22;21083;50.898;4.902;2023-04-06T09:41:05;9.90;99.90
20654;DHT22;21083;50.898;4.902;2023-04-06T09:43:32;10.00;99.90
20654;DHT22;21083;50.898;4.902;2023-04-06T09:46:00;10.00;99.90
20654;DHT22;21083;50.898;4.902;2023-04-06T09:48:31;10.10;99.90
20654;DHT22;21083;50.898;4.902;2023-04-06T09:51:03;10.00;99.90
20654;DHT22;21083;50.898;4.902;2023-04-06T09:53:31;10.00;99.90
20654;DHT22;21083;50.898;4.902;2023-04-06T09:56:03;10.00;99.90
20654;DHT22;21083;50.898;4.902;2023-04-06T09:58:34;10.10;99.90
20654;DHT22;21083;50.898;4.902;2023-04-06T10:01:06;10.30;99.90
20654;DHT22;21083;50.898;4.902;2023-04-06T10:03:48;10.40;99.90
20654;DHT22;21083;50.898;4.902;2023-04-06T10:06:21;10.30;99.90
20654;DHT22;21083;50.898;4.902;2023-04-06T10:08:50;10.00;99.90
20654;DHT22;21083;50.898;4.902;2023-04-06T10:11:21;10.00;99.90
20654;DHT22;21083;50.898;4.902;2023-04-06T10:13:50;10.00;99.90
20654;DHT22;21083;50.898;4.902;2023-04-06T10:16:17;10.00;99.90
20654;DHT22;21083;50.898;4.902;2023-04-06T10:18:46;10.00;99.90
20654;DHT22;21083;50.898;4.902;2023-04-06T10:21:17;9.80;99.90
20654;DHT22;21083;50.898;4.902;2023-04-06T10:23:48;9.80;99.90
20654;DHT22;21083;50.898;4.902;2023-04-06T10:26:17;9.80;99.90
20654;DHT22;21083;50.898;4.902;2023-04-06T10:28:46;9.70;99.90
20654;DHT22;21083;50.898;4.902;2023-04-06T10:31:14;9.70;99.90
20654;DHT22;21083;50.898;4.902;2023-04-06T10:33:41;9.50;99.90
20654;DHT22;21083;50.898;4.902;2023-04-06T10:36:12;9.60;99.90
20654;DHT22;21083;50.898;4.902;2023-04-06T10:38:40;9.50;99.90
20654;DHT22;21083;50.898;4.902;2023-04-06T10:41:08;9.50;99.90
20654;DHT22;21083;50.898;4.902;2023-04-06T10:43:35;9.50;99.90
20654;DHT22;21083;50.898;4.902;2023-04-06T10:46:05;9.60;99.90
20654;DHT22;21083;50.898;4.902;2023-04-06T10:48:40;9.60;99.90
20654;DHT22;21083;50.898;4.902;2023-04-06T10:51:10;9.70;99.90
20654;DHT22;21083;50.898;4.902;2023-04-06T10:53:37;9.70;99.90
20654;DHT22;21083;50.898;4.902;2023-04-06T10:56:05;9.80;99.90
20654;DHT22;21083;50.898;4.902;2023-04-06T10:58:36;9.80;99.90
20654;DHT22;21083;50.898;4.902;2023-04-06T11:01:04;9.80;99.90
20654;DHT22;21083;50.898;4.902;2023-04-06T11:03:31;9.80;99.90
20654;DHT22;21083;50.898;4.902;2023-04-06T11:05:59;9.80;99.90
20654;DHT22;21083;50.898;4.902;2023-04-06T11:08:29;9.90;99.90
20654;DHT22;21083;50.898;4.902;2023-04-06T11:11:06;10.10;99.90
20654;DHT22;21083;50.898;4.902;2023-04-06T11:13:38;10.00;99.90
20654;DHT22;21083;50.898;4.902;2023-04-06T11:16:11;10.10;99.90
20654;DHT22;21083;50.898;4.902;2023-04-06T11:18:45;10.10;99.90
20654;DHT22;21083;50.898;4.902;2023-04-06T11:21:13;10.10;99.90
20654;DHT22;21083;50.898;4.902;2023-04-06T11:23:40;10.00;99.90
20654;DHT22;21083;50.898;4.902;2023-04-06T11:26:10;10.10;99.90
20654;DHT22;21083;50.898;4.902;2023-04-06T11:28:37;10.00;99.90
20654;DHT22;21083;50.898;4.902;2023-04-06T11:31:07;9.90;99.90
20654;DHT22;21083;50.898;4.902;2023-04-06T11:33:36;10.00;99.90
20654;DHT22;21083;50.898;4.902;2023-04-06T11:36:04;10.20;99.90
20654;DHT22;21083;50.898;4.902;2023-04-06T11:38:31;10.20;99.90
20654;DHT22;21083;50.898;4.902;2023-04-06T11:40:58;10.40;99.90
20654;DHT22;21083;50.898;4.902;2023-04-06T11:43:29;10.30;99.90
20654;DHT22;21083;50.898;4.902;2023-04-06T11:46:00;10.40;99.90
20654;DHT22;21083;50.898;4.902;2023-04-06T11:48:30;10.30;99.90
20654;DHT22;21083;50.898;4.902;2023-04-06T11:50:57;10.00;99.90
20654;DHT22;21083;50.898;4.902;2023-04-06T11:53:26;10.00;99.90
20654;DHT22;21083;50.898;4.902;2023-04-06T11:55:53;9.90;99.90
20654;DHT22;21083;50.898;4.902;2023-04-06T11:58:20;9.90;99.90
20654;DHT22;21083;50.898;4.902;2023-04-06T12:00:47;9.90;99.90
20654;DHT22;21083;50.898;4.902;2023-04-06T12:03:14;9.90;99.90
20654;DHT22;21083;50.898;4.902;2023-04-06T12:05:44;9.80;99.90
20654;DHT22;21083;50.898;4.902;2023-04-06T12:08:10;9.60;99.90
20654;DHT22;21083;50.898;4.902;2023-04-06T12:10:37;9.70;99.90
20654;DHT22;21083;50.898;4.902;2023-04-06T12:13:04;9.80;99.90
20654;DHT22;21083;50.898;4.902;2023-04-06T12:15:32;9.90;99.90
20654;DHT22;21083;50.898;4.902;2023-04-06T12:17:59;10.00;99.90
20654;DHT22;21083;50.898;4.902;2023-04-06T12:20:26;10.10;99.90
20654;DHT22;21083;50.898;4.902;2023-04-06T12:22:54;10.20;99.90
20654;DHT22;21083;50.898;4.902;2023-04-06T12:25:21;10.40;99.90
20654;DHT22;21083;50.898;4.902;2023-04-06T12:27:48;10.20;99.90
20654;DHT22;21083;50.898;4.902;2023-04-06T12:30:16;10.20;99.90
20654;DHT22;21083;50.898;4.902;2023-04-06T12:32:43;10.00;99.90
20654;DHT22;21083;50.898;4.902;2023-04-06T12:35:10;9.90;99.90
20654;DHT22;21083;50.898;4.902;2023-04-06T12:37:41;9.90;99.90
20654;DHT22;21083;50.898;4.902;2023-04-06T12:40:10;9.80;99.90
20654;DHT22;21083;50.898;4.902;2023-04-06T12:42:39;9.90;99.90
20654;DHT22;21083;50.898;4.902;2023-04-06T12:45:07;10.10;99.90
20654;DHT22;21083;50.898;4.902;2023-04-06T12:47:34;10.30;99.90
20654;DHT22;21083;50.898;4.902;2023-04-06T12:50:04;10.50;99.90
20654;DHT22;21083;50.898;4.902;2023-04-06T12:52:32;10.60;99.90
20654;DHT22;21083;50.898;4.902;2023-04-06T12:55:01;10.70;99.90
20654;DHT22;21083;50.898;4.902;2023-04-06T12:57:29;10.80;99.90
20654;DHT22;21083;50.898;4.902;2023-04-06T12:59:56;10.80;99.90
20654;DHT22;21083;50.898;4.902;2023-04-06T13:02:24;10.90;99.90
20654;DHT22;21083;50.898;4.902;2023-04-06T13:04:51;10.70;99.90
20654;DHT22;21083;50.898;4.902;2023-04-06T13:07:18;10.60;99.90
20654;DHT22;21083;50.898;4.902;2023-04-06T13:09:45;10.60;99.90
20654;DHT22;21083;50.898;4.902;2023-04-06T13:12:14;10.50;99.90
20654;DHT22;21083;50.898;4.902;2023-04-06T13:14:42;10.30;99.90
20654;DHT22;21083;50.898;4.902;2023-04-06T13:17:09;10.30;99.90
20654;DHT22;21083;50.898;4.902;2023-04-06T13:19:36;10.20;99.90
20654;DHT22;21083;50.898;4.902;2023-04-06T13:22:03;10.20;99.90
20654;DHT22;21083;50.898;4.902;2023-04-06T13:24:30;10.30;99.90
20654;DHT22;21083;50.898;4.902;2023-04-06T13:26:57;10.30;99.90
20654;DHT22;21083;50.898;4.902;2023-04-06T13:29:24;10.30;99.90
20654;DHT22;21083;50.898;4.902;2023-04-06T13:31:53;10.40;99.90
20654;DHT22;21083;50.898;4.902;2023-04-06T13:34:20;10.40;99.90
20654;DHT22;21083;50.898;4.902;2023-04-06T13:36:46;10.30;99.90
20654;DHT22;21083;50.898;4.902;2023-04-06T13:39:13;10.30;99.90
20654;DHT22;21083;50.898;4.902;2023-04-06T13:41:40;10.30;99.90
20654;DHT22;21083;50.898;4.902;2023-04-06T13:44:07;10.20;99.90
20654;DHT22;21083;50.898;4.902;2023-04-06T13:46:35;10.20;99.90
20654;DHT22;21083;50.898;4.902;2023-04-06T13:49:04;10.10;99.90
20654;DHT22;21083;50.898;4.902;2023-04-06T13:51:31;10.10;99.90
20654;DHT22;21083;50.898;4.902;2023-04-06T13:53:58;10.20;99.90
20654;DHT22;21083;50.898;4.902;2023-04-06T13:56:24;10.20;99.90
20654;DHT22;21083;50.898;4.902;2023-04-06T13:58:53;10.20;99.90
20654;DHT22;21083;50.898;4.902;2023-04-06T14:01:21;10.20;99.90
20654;DHT22;21083;50.898;4.902;2023-04-06T14:03:48;10.30;99.90
20654;DHT22;21083;50.898;4.902;2023-04-06T14:06:17;10.40;99.90
20654;DHT22;21083;50.898;4.902;2023-04-06T14:08:44;10.40;99.90
20654;DHT22;21083;50.898;4.902;2023-04-06T14:11:12;10.40;99.90
20654;DHT22;21083;50.898;4.902;2023-04-06T14:13:39;10.40;99.90
20654;DHT22;21083;50.898;4.902;2023-04-06T14:16:06;10.40;99.90
20654;DHT22;21083;50.898;4.902;2023-04-06T14:18:33;10.40;99.90
20654;DHT22;21083;50.898;4.902;2023-04-06T14:21:00;10.40;99.90
20654;DHT22;21083;50.898;4.902;2023-04-06T14:23:29;10.40;99.90
20654;DHT22;21083;50.898;4.902;2023-04-06T14:26:03;10.30;99.90
20654;DHT22;21083;50.898;4.902;2023-04-06T14:28:31;10.40;99.90
20654;DHT22;21083;50.898;4.902;2023-04-06T14:30:59;10.40;99.90
20654;DHT22;21083;50.898;4.902;2023-04-06T14:33:26;10.40;99.90
20654;DHT22;21083;50.898;4.902;2023-04-06T14:35:53;10.40;99.90
20654;DHT22;21083;50.898;4.902;2023-04-06T14:38:19;10.40;99.90
20654;DHT22;21083;50.898;4.902;2023-04-06T14:40:48;10.50;99.90
20654;DHT22;21083;50.898;4.902;2023-04-06T14:43:15;10.40;99.90
20654;DHT22;21083;50.898;4.902;2023-04-06T14:45:42;10.50;99.90
20654;DHT22;21083;50.898;4.902;2023-04-06T14:48:09;10.50;99.90
20654;DHT22;21083;50.898;4.902;2023-04-06T14:50:38;10.40;99.90
20654;DHT22;21083;50.898;4.902;2023-04-06T14:53:05;10.40;99.90
20654;DHT22;21083;50.898;4.902;2023-04-06T14:55:32;10.30;99.90
20654;DHT22;21083;50.898;4.902;2023-04-06T14:58:01;10.20;99.90
20654;DHT22;21083;50.898;4.902;2023-04-06T15:00:27;10.20;99.90
20654;DHT22;21083;50.898;4.902;2023-04-06T15:02:54;10.10;99.90
20654;DHT22;21083;50.898;4.902;2023-04-06T15:05:21;9.90;99.90
20654;DHT22;21083;50.898;4.902;2023-04-06T15:07:48;9.80;99.90
20654;DHT22;21083;50.898;4.902;2023-04-06T15:10:15;9.90;99.90
20654;DHT22;21083;50.898;4.902;2023-04-06T15:12:42;9.90;99.90
20654;DHT22;21083;50.898;4.902;2023-04-06T15:15:11;10.00;99.90
20654;DHT22;21083;50.898;4.902;2023-04-06T15:17:39;10.10;99.90
20654;DHT22;21083;50.898;4.902;2023-04-06T15:20:06;10.20;99.90
20654;DHT22;21083;50.898;4.902;2023-04-06T15:22:33;9.80;99.90
20654;DHT22;21083;50.898;4.902;2023-04-06T15:25:00;9.80;99.90
20654;DHT22;21083;50.898;4.902;2023-04-06T15:27:27;9.80;99.90
20654;DHT22;21083;50.898;4.902;2023-04-06T15:29:54;9.70;99.90
20654;DHT22;21083;50.898;4.902;2023-04-06T15:32:22;9.80;99.90
20654;DHT22;21083;50.898;4.902;2023-04-06T15:34:49;9.90;99.90
20654;DHT22;21083;50.898;4.902;2023-04-06T15:37:16;10.00;99.90
20654;DHT22;21083;50.898;4.902;2023-04-06T15:39:43;10.10;99.90
20654;DHT22;21083;50.898;4.902;2023-04-06T15:42:10;10.20;99.90
20654;DHT22;21083;50.898;4.902;2023-04-06T15:44:36;10.20;99.90